This is the latest recevied weather packets stored in our database for station/object IZ1RFL-3. If no packets are shown the sender has not sent any weather packets the latest 10 day(s).
| Time | Temp. | Humidity | Pressure | Rain* | Wind** | Luminosity | Snow |
|---|---|---|---|---|---|---|---|
| 1777680962 | 12.22° C | 57% | 1026.9 hPa | - | - | - | - |
| 1777680062 | 12.78° C | 54% | 1027 hPa | - | - | - | - |
| 1777679162 | 12.78° C | 51% | 1027 hPa | - | - | - | - |
| 1777678262 | 12.78° C | 52% | 1026.9 hPa | - | - | - | - |
| 1777677362 | 13.33° C | 52% | 1026.9 hPa | - | - | - | - |
| 1777676463 | 13.33° C | 51% | 1026.9 hPa | - | - | - | - |
| 1777675562 | 13.33° C | 51% | 1026.9 hPa | - | - | - | - |
| 1777674663 | 13.33° C | 51% | 1027 hPa | - | - | - | - |
| 1777673762 | 14.44° C | 47% | 1026.9 hPa | - | - | - | - |
| 1777672862 | 14.44° C | 46% | 1026.9 hPa | - | - | - | - |
| 1777671962 | 15° C | 42% | 1026.9 hPa | - | - | - | - |
| 1777671062 | 15° C | 42% | 1026.8 hPa | - | - | - | - |
| 1777670162 | 15° C | 42% | 1026.9 hPa | - | - | - | - |
| 1777669262 | 15.56° C | 41% | 1026.8 hPa | - | - | - | - |
| 1777668362 | 15.56° C | 40% | 1026.8 hPa | - | - | - | - |
| 1777667462 | 15.56° C | 40% | 1026.7 hPa | - | - | - | - |
| 1777666562 | 16.11° C | 40% | 1026.7 hPa | - | - | - | - |
| 1777665662 | 16.11° C | 40% | 1026.6 hPa | - | - | - | - |
| 1777664762 | 16.11° C | 40% | 1026.5 hPa | - | - | - | - |
| 1777663862 | 16.11° C | 39% | 1026.4 hPa | - | - | - | - |
| 1777662962 | 16.67° C | 40% | 1026.2 hPa | - | - | - | - |
| 1777662062 | 17.22° C | 37% | 1026.2 hPa | - | - | - | - |
| 1777661162 | 17.78° C | 35% | 1026.1 hPa | - | - | - | - |
| 1777660262 | 17.78° C | 36% | 1025.9 hPa | - | - | - | - |
| 1777659362 | 17.78° C | 36% | 1025.9 hPa | - | - | - | - |
* Rain since midnight (hover to see other rain measurements)
** Current wind speed in m/s (hover to see current wind gust speed)